createdAt,value
2022-08-20T00:01:18.741Z,51.30
2022-08-20T00:03:51.726Z,51.82
2022-08-20T00:06:24.404Z,51.50
2022-08-20T00:08:53.741Z,51.59
2022-08-20T00:11:25.310Z,51.47
2022-08-20T00:13:56.720Z,51.56
2022-08-20T00:16:27.137Z,51.45
2022-08-20T00:18:55.224Z,52.25
2022-08-20T00:21:25.510Z,52.34
2022-08-20T00:23:56.569Z,52.77
2022-08-20T00:26:26.393Z,52.45
2022-08-20T00:28:54.765Z,52.63
2022-08-20T00:31:25.001Z,52.83
2022-08-20T00:33:53.913Z,52.80
2022-08-20T00:36:32.845Z,52.53
2022-08-20T00:39:02.849Z,52.72
2022-08-20T00:41:31.337Z,52.77
2022-08-20T00:44:08.544Z,52.47
2022-08-20T00:46:36.926Z,52.42
2022-08-20T00:49:08.325Z,52.74
2022-08-20T00:51:39.730Z,52.55
2022-08-20T00:54:15.072Z,52.26
2022-08-20T00:56:44.865Z,52.23
2022-08-20T00:59:22.133Z,52.13
2022-08-20T01:01:55.098Z,52.38
2022-08-20T01:04:26.450Z,52.30
2022-08-20T01:06:54.751Z,52.47
2022-08-20T01:09:50.218Z,52.02
2022-08-20T01:12:15.602Z,52.27
2022-08-20T01:14:45.918Z,52.03
2022-08-20T01:17:18.614Z,51.91
2022-08-20T01:19:51.457Z,52.04
2022-08-20T01:22:44.109Z,51.94
2022-08-20T01:25:21.701Z,51.84
2022-08-20T01:27:55.440Z,52.06
2022-08-20T01:30:27.541Z,52.02
2022-08-20T01:32:56.112Z,51.94
2022-08-20T01:35:24.897Z,52.04
2022-08-20T01:37:53.595Z,51.72
2022-08-20T01:40:39.789Z,52.03
2022-08-20T01:43:09.731Z,52.08
2022-08-20T01:45:40.187Z,51.98
2022-08-20T01:48:09.563Z,51.64
2022-08-20T01:50:41.351Z,51.59
2022-08-20T01:53:18.901Z,51.80
2022-08-20T01:55:47.091Z,51.65
2022-08-20T01:58:16.738Z,52.08
2022-08-20T02:00:44.753Z,51.53
2022-08-20T02:03:12.916Z,52.03
2022-08-20T02:05:41.147Z,51.74
2022-08-20T02:08:09.260Z,51.67
2022-08-20T02:10:37.403Z,51.72
2022-08-20T02:13:08.217Z,51.59
2022-08-20T02:15:39.661Z,51.61
2022-08-20T02:18:10.425Z,51.49
2022-08-20T02:20:40.136Z,51.23
2022-08-20T02:23:09.015Z,51.38
2022-08-20T02:25:40.240Z,51.17
2022-08-20T02:28:10.546Z,51.28
2022-08-20T02:30:42.877Z,51.44
2022-08-20T02:33:13.689Z,50.96
2022-08-20T02:35:44.122Z,51.03
2022-08-20T02:38:12.633Z,51.08
2022-08-20T02:40:41.403Z,51.19
2022-08-20T02:43:09.336Z,51.21
2022-08-20T02:45:44.078Z,50.91
2022-08-20T02:48:20.735Z,50.71
2022-08-20T02:50:54.171Z,50.52
2022-08-20T02:53:22.548Z,50.41
2022-08-20T02:55:51.006Z,50.58
2022-08-20T02:58:19.853Z,50.39
2022-08-20T03:00:49.913Z,50.41
2022-08-20T03:03:22.580Z,50.82
2022-08-20T03:05:53.405Z,50.50
2022-08-20T03:08:22.705Z,50.41
2022-08-20T03:10:52.994Z,50.20
2022-08-20T03:13:22.637Z,50.32
2022-08-20T03:15:58.624Z,50.56
2022-08-20T03:18:31.678Z,50.00
2022-08-20T03:20:59.765Z,50.28
2022-08-20T03:23:28.130Z,50.33
2022-08-20T03:25:56.387Z,49.91
2022-08-20T03:28:24.448Z,50.25
2022-08-20T03:30:54.758Z,50.35
2022-08-20T03:33:23.596Z,50.34
2022-08-20T03:35:51.595Z,50.04
2022-08-20T03:38:32.976Z,50.13
2022-08-20T03:41:02.486Z,50.11
2022-08-20T03:43:30.857Z,50.18
2022-08-20T03:46:01.030Z,50.18
2022-08-20T03:48:29.409Z,50.25
2022-08-20T03:51:00.676Z,50.16
2022-08-20T03:53:31.539Z,50.28
2022-08-20T03:56:02.449Z,50.25
2022-08-20T03:58:35.406Z,50.61
2022-08-20T04:01:07.840Z,50.65
2022-08-20T04:03:58.743Z,51.08
2022-08-20T04:06:27.782Z,51.09
2022-08-20T04:08:56.121Z,50.96
2022-08-20T04:11:24.733Z,51.31
2022-08-20T04:13:52.785Z,51.21
2022-08-20T04:16:22.473Z,51.49
2022-08-20T04:19:01.647Z,51.56
2022-08-20T04:21:32.547Z,51.57
2022-08-20T04:24:02.299Z,51.78
2022-08-20T04:26:30.404Z,51.90
2022-08-20T04:28:58.465Z,52.11
2022-08-20T04:31:33.957Z,52.06
2022-08-20T04:34:03.155Z,51.94
2022-08-20T04:36:31.268Z,52.13
2022-08-20T04:38:59.227Z,51.96
2022-08-20T04:41:27.241Z,52.25
2022-08-20T04:43:56.697Z,52.19
2022-08-20T04:46:28.759Z,52.42
2022-08-20T04:48:58.144Z,52.50
2022-08-20T04:51:27.076Z,52.56
2022-08-20T04:53:56.394Z,52.54
2022-08-20T04:56:26.857Z,52.42
2022-08-20T04:58:56.717Z,52.67
2022-08-20T05:01:26.209Z,52.81
2022-08-20T05:03:57.590Z,52.69
2022-08-20T05:06:28.644Z,52.85
2022-08-20T05:08:58.746Z,52.80
2022-08-20T05:11:34.601Z,52.67
2022-08-20T05:14:07.788Z,52.87
2022-08-20T05:16:39.020Z,53.06
2022-08-20T05:19:10.681Z,53.01
2022-08-20T05:21:39.166Z,52.86
2022-08-20T05:24:08.216Z,52.78
2022-08-20T05:26:36.771Z,52.67
2022-08-20T05:29:06.434Z,52.87
2022-08-20T05:31:35.630Z,52.93
2022-08-20T05:34:06.163Z,53.01
2022-08-20T05:36:35.533Z,52.97
2022-08-20T05:39:03.933Z,52.97
2022-08-20T05:41:31.924Z,53.06
2022-08-20T05:44:01.903Z,53.29
2022-08-20T05:46:31.242Z,53.40
2022-08-20T05:49:01.663Z,53.18
2022-08-20T05:51:31.129Z,53.43
2022-08-20T05:54:00.457Z,53.22
2022-08-20T05:56:31.261Z,53.32
2022-08-20T05:59:03.512Z,53.54
2022-08-20T06:01:32.141Z,53.23
2022-08-20T06:04:17.812Z,53.50
2022-08-20T06:06:47.335Z,53.56
2022-08-20T06:09:30.837Z,53.31
2022-08-20T06:12:01.080Z,53.44
2022-08-20T06:14:29.241Z,53.43
2022-08-20T06:17:03.722Z,53.31
2022-08-20T06:19:33.282Z,53.47
2022-08-20T06:22:01.559Z,53.77
2022-08-20T06:24:31.112Z,53.43
2022-08-20T06:27:00.142Z,53.67
2022-08-20T06:29:29.760Z,53.46
2022-08-20T06:31:58.384Z,53.67
2022-08-20T06:34:28.283Z,53.57
2022-08-20T06:36:59.989Z,53.59
2022-08-20T06:39:31.352Z,53.71
2022-08-20T06:41:59.650Z,53.64
2022-08-20T06:44:28.547Z,53.58
2022-08-20T06:47:01.009Z,53.61
2022-08-20T06:49:29.165Z,53.67
2022-08-20T06:52:04.521Z,53.90
2022-08-20T06:54:34.478Z,53.90
2022-08-20T06:57:02.714Z,53.88
2022-08-20T06:59:31.178Z,54.24
2022-08-20T07:01:59.221Z,54.07
2022-08-20T07:04:28.066Z,54.12
2022-08-20T07:06:57.724Z,53.88
2022-08-20T07:09:27.460Z,54.02
2022-08-20T07:11:56.981Z,54.04
2022-08-20T07:14:25.457Z,53.87
2022-08-20T07:16:53.413Z,53.73
2022-08-20T07:19:21.313Z,54.08
2022-08-20T07:21:49.398Z,53.87
2022-08-20T07:24:17.356Z,53.85
2022-08-20T07:26:45.377Z,53.76
2022-08-20T07:29:14.721Z,53.76
2022-08-20T07:32:00.024Z,53.65
2022-08-20T07:34:27.988Z,53.94
2022-08-20T07:36:56.014Z,53.82
2022-08-20T07:39:24.017Z,53.73
2022-08-20T07:42:03.413Z,53.82
2022-08-20T07:44:33.110Z,53.86
2022-08-20T07:47:01.360Z,53.81
2022-08-20T07:49:30.952Z,53.99
2022-08-20T07:51:59.034Z,53.94
2022-08-20T07:54:28.091Z,53.89
2022-08-20T07:57:02.575Z,54.10
2022-08-20T07:59:32.880Z,54.12
2022-08-20T08:02:00.901Z,54.25
2022-08-20T08:04:28.887Z,54.23
2022-08-20T08:07:00.133Z,54.11
2022-08-20T08:09:29.415Z,54.02
2022-08-20T08:12:00.713Z,53.95
2022-08-20T08:14:32.405Z,54.06
2022-08-20T08:17:05.767Z,54.13
2022-08-20T08:19:38.887Z,54.19
2022-08-20T08:22:11.616Z,54.29
2022-08-20T08:24:40.453Z,54.01
2022-08-20T08:27:08.962Z,54.51
2022-08-20T08:29:37.152Z,54.37
2022-08-20T08:32:07.804Z,54.23
2022-08-20T08:34:37.665Z,54.36
2022-08-20T08:37:06.164Z,54.50
2022-08-20T08:39:35.079Z,54.43
2022-08-20T08:42:05.215Z,54.51
2022-08-20T08:44:38.634Z,54.46
2022-08-20T08:47:18.589Z,54.62
2022-08-20T08:49:48.118Z,54.60
2022-08-20T08:52:22.307Z,54.72
2022-08-20T08:54:55.382Z,54.84
2022-08-20T08:57:24.239Z,55.00
2022-08-20T09:00:03.904Z,54.94
2022-08-20T09:02:38.849Z,54.99
2022-08-20T09:05:15.050Z,55.11
2022-08-20T09:07:47.946Z,54.84
2022-08-20T09:10:16.898Z,55.10
2022-08-20T09:12:52.097Z,55.42
2022-08-20T09:15:21.254Z,55.21
2022-08-20T09:17:50.752Z,55.39
2022-08-20T09:20:19.497Z,55.16
2022-08-20T09:22:51.982Z,55.46
2022-08-20T09:25:20.949Z,55.30
2022-08-20T09:27:49.206Z,55.46
2022-08-20T09:30:19.542Z,55.24
2022-08-20T09:32:48.335Z,55.32
2022-08-20T09:35:17.693Z,55.42
2022-08-20T09:37:46.984Z,55.22
2022-08-20T09:40:21.114Z,55.45
2022-08-20T09:42:50.446Z,55.30
2022-08-20T09:45:19.951Z,55.36
2022-08-20T09:47:54.999Z,55.41
2022-08-20T09:50:27.518Z,55.53
2022-08-20T09:52:56.980Z,55.48
2022-08-20T09:55:29.525Z,55.43
2022-08-20T09:57:57.840Z,55.51
2022-08-20T10:00:26.226Z,55.37
2022-08-20T10:02:54.409Z,55.58
2022-08-20T10:05:22.361Z,55.73
2022-08-20T10:07:52.205Z,55.80
2022-08-20T10:10:20.226Z,55.68
2022-08-20T10:12:50.567Z,55.60
2022-08-20T10:15:22.254Z,56.07
2022-08-20T10:17:50.336Z,55.81
2022-08-20T10:20:19.118Z,55.70
2022-08-20T10:22:47.370Z,55.96
2022-08-20T10:25:17.795Z,55.97
2022-08-20T10:27:46.337Z,55.88
2022-08-20T10:30:14.587Z,56.07
2022-08-20T10:32:42.796Z,56.08
2022-08-20T10:35:10.757Z,56.27
2022-08-20T10:37:38.756Z,56.14
2022-08-20T10:40:08.200Z,56.10
2022-08-20T10:42:42.332Z,56.09
2022-08-20T10:45:11.786Z,56.05
2022-08-20T10:47:40.052Z,56.34
2022-08-20T10:50:11.742Z,56.16
2022-08-20T10:52:39.917Z,56.18
2022-08-20T10:55:08.608Z,55.82
2022-08-20T10:57:39.861Z,56.35
2022-08-20T11:00:09.902Z,56.18
2022-08-20T11:02:38.487Z,56.23
2022-08-20T11:05:08.272Z,56.12
2022-08-20T11:07:49.843Z,56.43
2022-08-20T11:10:24.652Z,56.40
2022-08-20T11:12:54.041Z,56.53
2022-08-20T11:15:22.026Z,56.31
2022-08-20T11:17:50.060Z,56.60
2022-08-20T11:20:20.700Z,56.76
2022-08-20T11:22:48.921Z,56.59
2022-08-20T11:25:16.924Z,56.63
2022-08-20T11:27:47.000Z,56.93
2022-08-20T11:30:19.551Z,57.01
2022-08-20T11:32:47.582Z,56.73
2022-08-20T11:35:40.920Z,56.98
2022-08-20T11:38:05.117Z,56.82
2022-08-20T11:40:33.309Z,57.23
2022-08-20T11:43:17.850Z,56.84
2022-08-20T11:45:50.761Z,56.75
2022-08-20T11:48:19.068Z,57.12
2022-08-20T11:50:47.608Z,56.94
2022-08-20T11:53:16.103Z,56.64
2022-08-20T11:55:44.861Z,56.74
2022-08-20T11:58:14.005Z,56.94
2022-08-20T12:00:42.329Z,56.62
2022-08-20T12:03:12.324Z,56.72
2022-08-20T12:05:43.037Z,56.82
2022-08-20T12:08:25.315Z,57.00
2022-08-20T12:10:57.013Z,57.00
2022-08-20T12:13:30.739Z,56.91
2022-08-20T12:16:13.041Z,56.82
2022-08-20T12:18:42.461Z,56.99
2022-08-20T12:21:10.518Z,56.98
2022-08-20T12:23:38.455Z,57.12
2022-08-20T12:26:06.737Z,57.25
2022-08-20T12:28:34.898Z,57.51
2022-08-20T12:31:02.977Z,57.33
2022-08-20T12:33:30.915Z,57.42
2022-08-20T12:36:00.274Z,58.01
2022-08-20T12:38:28.329Z,57.81
2022-08-20T12:40:56.322Z,57.73
2022-08-20T12:43:25.147Z,58.04
2022-08-20T12:45:53.435Z,58.18
2022-08-20T12:48:21.938Z,58.24
2022-08-20T12:50:50.548Z,58.27
2022-08-20T12:53:20.105Z,58.30
2022-08-20T12:55:48.301Z,58.43
2022-08-20T12:58:16.362Z,58.37
2022-08-20T13:00:50.329Z,58.72
2022-08-20T13:03:19.619Z,58.52
2022-08-20T13:05:47.728Z,58.48
2022-08-20T13:08:17.662Z,58.66
2022-08-20T13:10:47.370Z,58.86
2022-08-20T13:13:17.456Z,58.84
2022-08-20T13:15:49.454Z,59.26
2022-08-20T13:18:17.601Z,59.12
2022-08-20T13:20:46.023Z,59.11
2022-08-20T13:23:14.012Z,59.88
2022-08-20T13:25:42.136Z,59.84
2022-08-20T13:28:11.522Z,60.04
2022-08-20T13:30:41.016Z,60.50
2022-08-20T13:33:09.101Z,60.41
2022-08-20T13:35:37.260Z,60.43
2022-08-20T13:38:05.512Z,60.65
2022-08-20T13:40:33.546Z,60.20
2022-08-20T13:43:06.547Z,60.42
2022-08-20T13:45:37.077Z,60.25
2022-08-20T13:48:06.929Z,60.22
2022-08-20T13:50:43.834Z,59.73
2022-08-20T13:53:15.118Z,59.86
2022-08-20T13:55:43.347Z,59.71
2022-08-20T13:58:11.459Z,59.63
2022-08-20T14:00:40.801Z,59.65
2022-08-20T14:03:08.846Z,59.40
2022-08-20T14:05:38.056Z,59.52
2022-08-20T14:08:08.869Z,59.63
2022-08-20T14:10:37.540Z,59.44
2022-08-20T14:13:06.919Z,59.47
2022-08-20T14:15:36.450Z,59.51
2022-08-20T14:18:06.157Z,59.54
2022-08-20T14:20:35.265Z,59.19
2022-08-20T14:23:06.828Z,59.25
2022-08-20T14:25:35.461Z,59.46
2022-08-20T14:28:10.814Z,59.52
2022-08-20T14:30:38.798Z,59.57
2022-08-20T14:33:08.226Z,59.76
2022-08-20T14:35:36.439Z,59.49
2022-08-20T14:38:05.348Z,59.49
2022-08-20T14:40:34.749Z,59.43
2022-08-20T14:43:03.341Z,59.55
2022-08-20T14:45:31.332Z,59.75
2022-08-20T14:47:59.740Z,59.42
2022-08-20T14:50:30.937Z,59.71
2022-08-20T14:52:59.649Z,59.32
2022-08-20T14:55:29.445Z,59.51
2022-08-20T14:57:57.472Z,59.08
2022-08-20T15:00:27.685Z,59.17
2022-08-20T15:02:56.106Z,58.95
2022-08-20T15:05:24.892Z,58.88
2022-08-20T15:07:54.445Z,58.71
2022-08-20T15:10:25.298Z,58.60
2022-08-20T15:12:53.266Z,58.30
2022-08-20T15:15:22.328Z,58.63
2022-08-20T15:17:54.950Z,58.46
2022-08-20T15:20:25.266Z,58.44
2022-08-20T15:22:55.096Z,58.38
2022-08-20T15:25:25.876Z,58.55
2022-08-20T15:28:00.607Z,58.46
2022-08-20T15:30:31.694Z,58.33
2022-08-20T15:33:00.340Z,58.70
2022-08-20T15:35:29.649Z,58.48
2022-08-20T15:38:00.110Z,58.76
2022-08-20T15:40:31.131Z,58.31
2022-08-20T15:43:00.340Z,58.15
2022-08-20T15:45:28.632Z,58.30
2022-08-20T15:48:03.238Z,58.58
2022-08-20T15:50:57.256Z,58.48
2022-08-20T15:53:31.795Z,58.65
2022-08-20T15:56:11.357Z,58.64
2022-08-20T15:58:48.676Z,58.61
2022-08-20T16:01:26.611Z,58.61
2022-08-20T16:04:23.467Z,58.37
2022-08-20T16:06:56.084Z,58.52
2022-08-20T16:09:48.589Z,58.30
2022-08-20T16:12:25.000Z,58.41
2022-08-20T16:15:00.384Z,58.32
2022-08-20T16:17:34.577Z,58.43
2022-08-20T16:20:08.997Z,58.37
2022-08-20T16:22:43.300Z,58.23
2022-08-20T16:25:14.680Z,58.08
2022-08-20T16:27:53.118Z,58.04
2022-08-20T16:30:30.783Z,58.22
2022-08-20T16:33:07.493Z,58.12
2022-08-20T16:35:38.541Z,58.07
2022-08-20T16:38:16.162Z,58.18
2022-08-20T16:40:55.521Z,58.04
2022-08-20T16:43:30.877Z,58.03
2022-08-20T16:46:03.706Z,57.99
2022-08-20T16:48:36.681Z,58.07
2022-08-20T16:51:08.901Z,57.94
2022-08-20T16:53:36.994Z,57.68
2022-08-20T16:56:07.071Z,57.84
2022-08-20T16:58:35.190Z,57.68
2022-08-20T17:01:11.788Z,57.57
2022-08-20T17:03:49.660Z,57.65
2022-08-20T17:06:27.912Z,57.43
2022-08-20T17:08:56.179Z,57.38
2022-08-20T17:11:31.001Z,57.01
2022-08-20T17:14:09.181Z,57.41
2022-08-20T17:16:42.697Z,57.35
2022-08-20T17:19:18.861Z,57.04
2022-08-20T17:21:50.307Z,57.33
2022-08-20T17:24:26.181Z,57.38
2022-08-20T17:27:01.221Z,57.22
2022-08-20T17:29:32.017Z,57.36
2022-08-20T17:32:01.909Z,57.22
2022-08-20T17:34:32.678Z,57.22
2022-08-20T17:37:06.441Z,56.88
2022-08-20T17:39:34.545Z,57.14
2022-08-20T17:42:08.875Z,57.19
2022-08-20T17:44:42.502Z,57.31
2022-08-20T17:47:15.110Z,57.07
2022-08-20T17:50:01.195Z,57.33
2022-08-20T17:52:35.747Z,57.41
2022-08-20T17:55:04.646Z,57.20
2022-08-20T17:57:38.848Z,56.98
2022-08-20T18:00:13.908Z,57.25
2022-08-20T18:02:42.273Z,57.10
2022-08-20T18:05:21.918Z,57.13
2022-08-20T18:08:04.532Z,57.16
2022-08-20T18:10:38.226Z,57.09
2022-08-20T18:13:16.027Z,57.09
2022-08-20T18:15:51.016Z,57.04
2022-08-20T18:18:29.355Z,57.06
2022-08-20T18:21:48.110Z,57.14
2022-08-20T18:24:20.046Z,57.35
2022-08-20T18:26:52.738Z,56.82
2022-08-20T18:29:27.562Z,56.47
2022-08-20T18:31:59.066Z,56.35
2022-08-20T18:34:37.788Z,55.48
2022-08-20T18:37:08.083Z,54.67
2022-08-20T18:39:38.527Z,54.08
2022-08-20T18:42:09.721Z,53.77
2022-08-20T18:44:44.058Z,53.31
2022-08-20T18:47:22.127Z,53.24
2022-08-20T18:50:06.425Z,52.55
2022-08-20T18:52:47.343Z,52.29
2022-08-20T18:55:29.613Z,51.78
2022-08-20T18:58:01.065Z,51.80
2022-08-20T19:00:37.509Z,51.35
2022-08-20T19:03:16.176Z,51.37
2022-08-20T19:06:03.377Z,51.40
2022-08-20T19:08:42.835Z,51.16
2022-08-20T19:11:31.200Z,51.08
2022-08-20T19:14:38.634Z,51.24
2022-08-20T19:17:15.118Z,51.14
2022-08-20T19:19:43.661Z,50.89
2022-08-20T19:22:13.507Z,51.01
2022-08-20T19:24:44.449Z,50.89
2022-08-20T19:27:13.913Z,50.79
2022-08-20T19:29:47.317Z,50.63
2022-08-20T19:32:22.421Z,50.40
2022-08-20T19:34:55.105Z,50.43
2022-08-20T19:37:35.293Z,50.25
2022-08-20T19:40:22.116Z,50.79
2022-08-20T19:42:55.036Z,50.84
2022-08-20T19:45:31.292Z,50.65
2022-08-20T19:48:16.100Z,50.81
2022-08-20T19:50:51.312Z,50.77
2022-08-20T19:53:30.464Z,50.84
2022-08-20T19:56:02.157Z,50.88
2022-08-20T19:58:34.779Z,50.77
2022-08-20T20:01:04.801Z,50.92
2022-08-20T20:03:37.766Z,51.00
2022-08-20T20:06:15.213Z,51.03
2022-08-20T20:08:51.355Z,51.01
2022-08-20T20:11:25.613Z,50.95
2022-08-20T20:13:54.750Z,50.78
2022-08-20T20:16:22.937Z,50.39
2022-08-20T20:19:15.600Z,50.08
2022-08-20T20:21:43.375Z,49.87
2022-08-20T20:24:12.666Z,49.72
2022-08-20T20:26:42.720Z,49.58
2022-08-20T20:29:12.700Z,49.06
2022-08-20T20:31:49.901Z,49.21
2022-08-20T20:34:27.437Z,49.07
2022-08-20T20:37:05.545Z,48.67
2022-08-20T20:39:36.500Z,48.58
2022-08-20T20:42:08.123Z,48.43
2022-08-20T20:44:37.772Z,48.26
2022-08-20T20:47:09.400Z,48.10
2022-08-20T20:49:52.433Z,47.95
2022-08-20T20:52:23.987Z,47.88
2022-08-20T20:54:53.505Z,47.85
2022-08-20T20:57:38.046Z,48.21
2022-08-20T21:00:09.932Z,47.70
2022-08-20T21:02:38.609Z,47.62
2022-08-20T21:05:08.807Z,47.53
2022-08-20T21:07:46.120Z,47.36
2022-08-20T21:10:20.462Z,47.44
2022-08-20T21:12:52.654Z,47.33
2022-08-20T21:15:22.785Z,47.17
2022-08-20T21:17:50.771Z,47.26
2022-08-20T21:20:21.378Z,46.98
2022-08-20T21:22:49.351Z,46.72
2022-08-20T21:25:18.737Z,46.76
2022-08-20T21:27:49.600Z,46.57
2022-08-20T21:30:18.657Z,46.71
2022-08-20T21:32:47.018Z,46.21
2022-08-20T21:35:16.658Z,46.05
2022-08-20T21:37:46.005Z,46.04
2022-08-20T21:40:15.319Z,45.89
2022-08-20T21:42:46.629Z,46.02
2022-08-20T21:45:19.485Z,45.82
2022-08-20T21:47:48.919Z,45.74
2022-08-20T21:50:18.592Z,45.22
2022-08-20T21:52:55.380Z,45.15
2022-08-20T21:55:29.578Z,44.88
2022-08-20T21:57:58.683Z,44.78
2022-08-20T22:00:49.881Z,44.79
2022-08-20T22:03:19.989Z,44.57
2022-08-20T22:05:48.994Z,44.65
2022-08-20T22:08:19.276Z,44.61
2022-08-20T22:10:47.570Z,44.30
2022-08-20T22:13:16.100Z,43.99
2022-08-20T22:15:44.057Z,43.97
2022-08-20T22:18:12.348Z,43.92
2022-08-20T22:20:40.999Z,43.72
2022-08-20T22:23:09.241Z,43.61
2022-08-20T22:25:38.752Z,43.54
2022-08-20T22:28:07.103Z,43.35
2022-08-20T22:30:37.433Z,43.00
2022-08-20T22:33:13.614Z,42.73
2022-08-20T22:35:47.184Z,42.93
2022-08-20T22:38:15.284Z,43.28
2022-08-20T22:40:45.182Z,42.92
2022-08-20T22:43:14.365Z,42.98
2022-08-20T22:45:44.496Z,42.95
2022-08-20T22:48:16.478Z,42.93
2022-08-20T22:50:45.157Z,42.82
2022-08-20T22:53:14.508Z,42.85
2022-08-20T22:55:43.913Z,42.90
2022-08-20T22:58:13.805Z,42.59
2022-08-20T23:00:42.261Z,42.80
2022-08-20T23:03:11.564Z,42.68
2022-08-20T23:05:40.714Z,42.68
2022-08-20T23:08:09.397Z,43.12
2022-08-20T23:10:39.054Z,43.08
2022-08-20T23:13:08.520Z,42.96
2022-08-20T23:15:41.484Z,42.95
2022-08-20T23:18:17.618Z,42.86
2022-08-20T23:20:51.472Z,42.75
2022-08-20T23:23:19.728Z,43.03
2022-08-20T23:25:47.778Z,42.90
2022-08-20T23:28:17.953Z,42.89
2022-08-20T23:30:46.517Z,42.94
2022-08-20T23:33:14.545Z,42.80
2022-08-20T23:35:43.345Z,42.73
2022-08-20T23:38:11.735Z,42.79
2022-08-20T23:40:40.155Z,42.66
2022-08-20T23:43:08.323Z,42.45
2022-08-20T23:45:40.105Z,42.24
2022-08-20T23:48:09.048Z,42.49
2022-08-20T23:50:37.881Z,42.38
2022-08-20T23:53:06.645Z,42.23
2022-08-20T23:55:34.784Z,42.45
2022-08-20T23:58:02.817Z,42.16
